sensor_id;sensor_type;location;lat;lon;timestamp;temperature;humidity
43949;DHT22;29429;51.074;13.764;2024-02-04T00:00:09;9.70;99.90
43949;DHT22;29429;51.074;13.764;2024-02-04T00:02:37;9.60;99.90
43949;DHT22;29429;51.074;13.764;2024-02-04T00:05:05;9.60;99.90
43949;DHT22;29429;51.074;13.764;2024-02-04T00:07:32;9.60;99.90
43949;DHT22;29429;51.074;13.764;2024-02-04T00:09:59;9.70;99.90
43949;DHT22;29429;51.074;13.764;2024-02-04T00:12:26;9.70;99.90
43949;DHT22;29429;51.074;13.764;2024-02-04T00:14:53;9.70;99.90
43949;DHT22;29429;51.074;13.764;2024-02-04T00:17:21;9.70;99.90
43949;DHT22;29429;51.074;13.764;2024-02-04T00:19:47;9.70;99.90
43949;DHT22;29429;51.074;13.764;2024-02-04T00:22:15;9.80;99.90
43949;DHT22;29429;51.074;13.764;2024-02-04T00:24:45;9.70;99.90
43949;DHT22;29429;51.074;13.764;2024-02-04T00:27:12;9.70;99.90
43949;DHT22;29429;51.074;13.764;2024-02-04T00:29:39;9.80;99.90
43949;DHT22;29429;51.074;13.764;2024-02-04T00:32:07;9.70;99.90
43949;DHT22;29429;51.074;13.764;2024-02-04T00:34:34;9.80;99.90
43949;DHT22;29429;51.074;13.764;2024-02-04T00:37:01;9.70;99.90
43949;DHT22;29429;51.074;13.764;2024-02-04T00:39:28;9.60;99.90
43949;DHT22;29429;51.074;13.764;2024-02-04T00:41:55;9.60;99.90
43949;DHT22;29429;51.074;13.764;2024-02-04T00:44:22;9.70;99.90
43949;DHT22;29429;51.074;13.764;2024-02-04T00:46:49;9.60;99.90
43949;DHT22;29429;51.074;13.764;2024-02-04T00:49:15;9.60;99.90
43949;DHT22;29429;51.074;13.764;2024-02-04T00:51:43;9.50;99.90
43949;DHT22;29429;51.074;13.764;2024-02-04T00:54:10;9.70;99.90
43949;DHT22;29429;51.074;13.764;2024-02-04T00:56:36;9.60;99.90
43949;DHT22;29429;51.074;13.764;2024-02-04T00:59:04;9.60;99.90
43949;DHT22;29429;51.074;13.764;2024-02-04T01:01:31;9.60;99.90
43949;DHT22;29429;51.074;13.764;2024-02-04T01:03:59;9.50;99.90
43949;DHT22;29429;51.074;13.764;2024-02-04T01:06:26;9.50;99.90
43949;DHT22;29429;51.074;13.764;2024-02-04T01:08:56;9.40;99.90
43949;DHT22;29429;51.074;13.764;2024-02-04T01:11:23;9.30;99.90
43949;DHT22;29429;51.074;13.764;2024-02-04T01:13:50;9.30;99.90
43949;DHT22;29429;51.074;13.764;2024-02-04T01:16:17;9.30;99.90
43949;DHT22;29429;51.074;13.764;2024-02-04T01:18:44;9.30;99.90
43949;DHT22;29429;51.074;13.764;2024-02-04T01:21:11;9.30;99.90
43949;DHT22;29429;51.074;13.764;2024-02-04T01:23:38;9.20;99.90
43949;DHT22;29429;51.074;13.764;2024-02-04T01:26:06;9.30;99.90
43949;DHT22;29429;51.074;13.764;2024-02-04T01:28:32;9.30;99.90
43949;DHT22;29429;51.074;13.764;2024-02-04T01:31:00;9.30;99.90
43949;DHT22;29429;51.074;13.764;2024-02-04T01:33:27;9.10;99.90
43949;DHT22;29429;51.074;13.764;2024-02-04T01:35:54;9.30;99.90
43949;DHT22;29429;51.074;13.764;2024-02-04T01:38:21;9.20;99.90
43949;DHT22;29429;51.074;13.764;2024-02-04T01:40:48;9.20;99.90
43949;DHT22;29429;51.074;13.764;2024-02-04T01:43:18;9.30;99.90
43949;DHT22;29429;51.074;13.764;2024-02-04T01:45:45;9.30;99.90
43949;DHT22;29429;51.074;13.764;2024-02-04T01:48:12;9.30;99.90
43949;DHT22;29429;51.074;13.764;2024-02-04T01:50:42;9.10;99.90
43949;DHT22;29429;51.074;13.764;2024-02-04T01:53:10;9.10;99.90
43949;DHT22;29429;51.074;13.764;2024-02-04T01:55:39;9.10;99.90
43949;DHT22;29429;51.074;13.764;2024-02-04T01:58:06;8.90;99.90
43949;DHT22;29429;51.074;13.764;2024-02-04T02:00:33;8.90;99.90
43949;DHT22;29429;51.074;13.764;2024-02-04T02:03:01;8.80;99.90
43949;DHT22;29429;51.074;13.764;2024-02-04T02:05:32;8.90;99.90
43949;DHT22;29429;51.074;13.764;2024-02-04T02:07:59;8.90;99.90
43949;DHT22;29429;51.074;13.764;2024-02-04T02:10:26;8.90;99.90
43949;DHT22;29429;51.074;13.764;2024-02-04T02:13:07;9.00;99.90
43949;DHT22;29429;51.074;13.764;2024-02-04T02:15:44;9.00;99.90
43949;DHT22;29429;51.074;13.764;2024-02-04T02:18:25;9.00;99.90
43949;DHT22;29429;51.074;13.764;2024-02-04T02:26:50;9.10;99.90
43949;DHT22;29429;51.074;13.764;2024-02-04T02:29:17;9.10;99.90
43949;DHT22;29429;51.074;13.764;2024-02-04T02:31:44;9.10;99.90
43949;DHT22;29429;51.074;13.764;2024-02-04T02:34:16;9.10;99.90
43949;DHT22;29429;51.074;13.764;2024-02-04T02:36:55;9.10;99.90
43949;DHT22;29429;51.074;13.764;2024-02-04T02:39:33;9.20;99.90
43949;DHT22;29429;51.074;13.764;2024-02-04T02:42:10;9.10;99.90
43949;DHT22;29429;51.074;13.764;2024-02-04T02:44:39;9.20;99.90
43949;DHT22;29429;51.074;13.764;2024-02-04T02:47:07;9.30;99.90
43949;DHT22;29429;51.074;13.764;2024-02-04T02:49:36;9.20;99.90
43949;DHT22;29429;51.074;13.764;2024-02-04T02:52:03;9.20;99.90
43949;DHT22;29429;51.074;13.764;2024-02-04T02:54:30;9.20;99.90
43949;DHT22;29429;51.074;13.764;2024-02-04T02:56:57;9.20;99.90
43949;DHT22;29429;51.074;13.764;2024-02-04T02:59:24;9.20;99.90
43949;DHT22;29429;51.074;13.764;2024-02-04T03:01:51;9.20;99.90
43949;DHT22;29429;51.074;13.764;2024-02-04T03:04:18;9.20;99.90
43949;DHT22;29429;51.074;13.764;2024-02-04T03:06:45;9.20;99.90
43949;DHT22;29429;51.074;13.764;2024-02-04T03:09:12;9.30;99.90
43949;DHT22;29429;51.074;13.764;2024-02-04T03:11:39;9.30;99.90
43949;DHT22;29429;51.074;13.764;2024-02-04T03:14:06;9.30;99.90
43949;DHT22;29429;51.074;13.764;2024-02-04T03:16:33;9.30;99.90
43949;DHT22;29429;51.074;13.764;2024-02-04T03:19:05;9.40;99.90
43949;DHT22;29429;51.074;13.764;2024-02-04T03:21:33;9.30;99.90
43949;DHT22;29429;51.074;13.764;2024-02-04T03:24:00;9.40;99.90
43949;DHT22;29429;51.074;13.764;2024-02-04T03:26:27;9.40;99.90
43949;DHT22;29429;51.074;13.764;2024-02-04T03:28:54;9.40;99.90
43949;DHT22;29429;51.074;13.764;2024-02-04T03:31:24;9.40;99.90
43949;DHT22;29429;51.074;13.764;2024-02-04T03:33:52;9.50;99.90
43949;DHT22;29429;51.074;13.764;2024-02-04T03:36:22;9.50;99.90
43949;DHT22;29429;51.074;13.764;2024-02-04T03:38:53;9.40;99.90
43949;DHT22;29429;51.074;13.764;2024-02-04T03:41:20;9.40;99.90
43949;DHT22;29429;51.074;13.764;2024-02-04T03:43:47;9.40;99.90
43949;DHT22;29429;51.074;13.764;2024-02-04T03:46:17;9.40;99.90
43949;DHT22;29429;51.074;13.764;2024-02-04T03:48:44;9.30;99.90
43949;DHT22;29429;51.074;13.764;2024-02-04T03:51:17;9.30;99.90
43949;DHT22;29429;51.074;13.764;2024-02-04T03:53:47;9.30;99.90
43949;DHT22;29429;51.074;13.764;2024-02-04T03:56:15;9.30;99.90
43949;DHT22;29429;51.074;13.764;2024-02-04T03:58:42;9.30;99.90
43949;DHT22;29429;51.074;13.764;2024-02-04T04:01:12;9.40;99.90
43949;DHT22;29429;51.074;13.764;2024-02-04T04:03:41;9.30;99.90
43949;DHT22;29429;51.074;13.764;2024-02-04T04:06:12;9.30;99.90
43949;DHT22;29429;51.074;13.764;2024-02-04T04:08:39;9.30;99.90
43949;DHT22;29429;51.074;13.764;2024-02-04T04:11:08;9.30;99.90
43949;DHT22;29429;51.074;13.764;2024-02-04T04:13:37;9.30;99.90
43949;DHT22;29429;51.074;13.764;2024-02-04T04:16:05;9.30;99.90
43949;DHT22;29429;51.074;13.764;2024-02-04T04:18:33;9.20;99.90
43949;DHT22;29429;51.074;13.764;2024-02-04T04:21:00;9.40;99.90
43949;DHT22;29429;51.074;13.764;2024-02-04T04:23:27;9.40;99.90
43949;DHT22;29429;51.074;13.764;2024-02-04T04:25:54;9.30;99.90
43949;DHT22;29429;51.074;13.764;2024-02-04T04:28:21;9.30;99.90
43949;DHT22;29429;51.074;13.764;2024-02-04T04:30:48;9.30;99.90
43949;DHT22;29429;51.074;13.764;2024-02-04T04:33:15;9.40;99.90
43949;DHT22;29429;51.074;13.764;2024-02-04T04:35:42;9.20;99.90
43949;DHT22;29429;51.074;13.764;2024-02-04T04:38:09;9.20;99.90
43949;DHT22;29429;51.074;13.764;2024-02-04T04:40:36;9.30;99.90
43949;DHT22;29429;51.074;13.764;2024-02-04T04:43:03;9.30;99.90
43949;DHT22;29429;51.074;13.764;2024-02-04T04:45:30;9.20;99.90
43949;DHT22;29429;51.074;13.764;2024-02-04T04:47:58;9.30;99.90
43949;DHT22;29429;51.074;13.764;2024-02-04T04:50:25;9.30;99.90
43949;DHT22;29429;51.074;13.764;2024-02-04T04:52:51;9.30;99.90
43949;DHT22;29429;51.074;13.764;2024-02-04T04:55:19;9.30;99.90
43949;DHT22;29429;51.074;13.764;2024-02-04T04:57:46;9.30;99.90
43949;DHT22;29429;51.074;13.764;2024-02-04T05:00:14;9.30;99.90
43949;DHT22;29429;51.074;13.764;2024-02-04T05:02:41;9.30;99.90
43949;DHT22;29429;51.074;13.764;2024-02-04T05:05:11;9.30;99.90
43949;DHT22;29429;51.074;13.764;2024-02-04T05:07:39;9.50;99.90
43949;DHT22;29429;51.074;13.764;2024-02-04T05:10:07;9.40;99.90
43949;DHT22;29429;51.074;13.764;2024-02-04T05:12:36;9.30;99.90
43949;DHT22;29429;51.074;13.764;2024-02-04T05:15:04;9.30;99.90
43949;DHT22;29429;51.074;13.764;2024-02-04T05:17:31;9.20;99.90
43949;DHT22;29429;51.074;13.764;2024-02-04T05:20:00;9.10;99.90
43949;DHT22;29429;51.074;13.764;2024-02-04T05:22:29;9.20;99.90
43949;DHT22;29429;51.074;13.764;2024-02-04T05:24:56;9.10;99.90
43949;DHT22;29429;51.074;13.764;2024-02-04T05:27:23;9.00;99.90
43949;DHT22;29429;51.074;13.764;2024-02-04T05:29:50;9.20;99.90
43949;DHT22;29429;51.074;13.764;2024-02-04T05:32:17;9.30;99.90
43949;DHT22;29429;51.074;13.764;2024-02-04T05:34:44;9.20;99.90
43949;DHT22;29429;51.074;13.764;2024-02-04T05:37:11;9.30;99.90
43949;DHT22;29429;51.074;13.764;2024-02-04T05:39:38;9.40;99.90
43949;DHT22;29429;51.074;13.764;2024-02-04T05:42:05;9.40;99.90
43949;DHT22;29429;51.074;13.764;2024-02-04T05:44:32;9.30;99.90
43949;DHT22;29429;51.074;13.764;2024-02-04T05:46:59;9.40;99.90
43949;DHT22;29429;51.074;13.764;2024-02-04T05:49:26;9.40;99.90
43949;DHT22;29429;51.074;13.764;2024-02-04T05:51:53;9.40;99.90
43949;DHT22;29429;51.074;13.764;2024-02-04T05:54:20;9.30;99.90
43949;DHT22;29429;51.074;13.764;2024-02-04T05:56:47;9.30;99.90
43949;DHT22;29429;51.074;13.764;2024-02-04T05:59:14;9.30;99.90
43949;DHT22;29429;51.074;13.764;2024-02-04T06:01:42;9.40;99.90
43949;DHT22;29429;51.074;13.764;2024-02-04T06:04:10;9.30;99.90
43949;DHT22;29429;51.074;13.764;2024-02-04T06:06:37;9.30;99.90
43949;DHT22;29429;51.074;13.764;2024-02-04T06:09:04;9.30;99.90
43949;DHT22;29429;51.074;13.764;2024-02-04T06:11:32;9.30;99.90
43949;DHT22;29429;51.074;13.764;2024-02-04T06:13:58;9.30;99.90
43949;DHT22;29429;51.074;13.764;2024-02-04T06:16:26;9.30;99.90
43949;DHT22;29429;51.074;13.764;2024-02-04T06:18:53;9.30;99.90
43949;DHT22;29429;51.074;13.764;2024-02-04T06:21:25;9.40;99.90
43949;DHT22;29429;51.074;13.764;2024-02-04T06:23:52;9.40;99.90
43949;DHT22;29429;51.074;13.764;2024-02-04T06:26:19;9.40;99.90
43949;DHT22;29429;51.074;13.764;2024-02-04T06:28:46;9.40;99.90
43949;DHT22;29429;51.074;13.764;2024-02-04T06:31:15;9.40;99.90
43949;DHT22;29429;51.074;13.764;2024-02-04T06:33:42;9.40;99.90
43949;DHT22;29429;51.074;13.764;2024-02-04T06:36:10;9.50;99.90
43949;DHT22;29429;51.074;13.764;2024-02-04T06:38:38;9.50;99.90
43949;DHT22;29429;51.074;13.764;2024-02-04T06:41:05;9.50;99.90
43949;DHT22;29429;51.074;13.764;2024-02-04T06:43:31;9.40;99.90
43949;DHT22;29429;51.074;13.764;2024-02-04T06:46:02;9.40;99.90
43949;DHT22;29429;51.074;13.764;2024-02-04T06:48:30;9.40;99.90
43949;DHT22;29429;51.074;13.764;2024-02-04T06:50:57;9.40;99.90
43949;DHT22;29429;51.074;13.764;2024-02-04T06:53:24;9.40;99.90
43949;DHT22;29429;51.074;13.764;2024-02-04T06:55:52;9.50;99.90
43949;DHT22;29429;51.074;13.764;2024-02-04T06:58:19;9.50;99.90
43949;DHT22;29429;51.074;13.764;2024-02-04T07:00:46;9.50;99.90
43949;DHT22;29429;51.074;13.764;2024-02-04T07:03:14;9.50;99.90
43949;DHT22;29429;51.074;13.764;2024-02-04T07:05:41;9.60;99.90
43949;DHT22;29429;51.074;13.764;2024-02-04T07:08:09;9.50;99.90
43949;DHT22;29429;51.074;13.764;2024-02-04T07:10:36;9.50;99.90
43949;DHT22;29429;51.074;13.764;2024-02-04T07:13:03;9.60;99.90
43949;DHT22;29429;51.074;13.764;2024-02-04T07:15:30;9.60;99.90
43949;DHT22;29429;51.074;13.764;2024-02-04T07:17:57;9.60;99.90
43949;DHT22;29429;51.074;13.764;2024-02-04T07:20:25;9.70;99.90
43949;DHT22;29429;51.074;13.764;2024-02-04T07:22:52;9.70;99.90
43949;DHT22;29429;51.074;13.764;2024-02-04T07:25:19;9.70;99.90
43949;DHT22;29429;51.074;13.764;2024-02-04T07:27:47;9.80;99.90
43949;DHT22;29429;51.074;13.764;2024-02-04T07:30:14;10.00;99.90
43949;DHT22;29429;51.074;13.764;2024-02-04T07:32:41;9.80;99.90
43949;DHT22;29429;51.074;13.764;2024-02-04T07:35:09;9.90;99.90
43949;DHT22;29429;51.074;13.764;2024-02-04T07:37:36;9.90;99.90
43949;DHT22;29429;51.074;13.764;2024-02-04T07:40:04;9.90;99.90
43949;DHT22;29429;51.074;13.764;2024-02-04T07:42:34;9.90;99.90
43949;DHT22;29429;51.074;13.764;2024-02-04T07:45:02;9.90;99.90
43949;DHT22;29429;51.074;13.764;2024-02-04T07:47:35;9.90;99.90
43949;DHT22;29429;51.074;13.764;2024-02-04T07:50:03;9.90;99.90
43949;DHT22;29429;51.074;13.764;2024-02-04T07:52:30;10.00;99.90
43949;DHT22;29429;51.074;13.764;2024-02-04T07:54:57;10.00;99.90
43949;DHT22;29429;51.074;13.764;2024-02-04T07:57:24;10.10;99.90
43949;DHT22;29429;51.074;13.764;2024-02-04T07:59:51;10.10;99.90
43949;DHT22;29429;51.074;13.764;2024-02-04T08:02:19;10.10;99.90
43949;DHT22;29429;51.074;13.764;2024-02-04T08:04:46;10.20;99.90
43949;DHT22;29429;51.074;13.764;2024-02-04T08:07:13;10.30;99.90
43949;DHT22;29429;51.074;13.764;2024-02-04T08:09:40;10.30;99.90
43949;DHT22;29429;51.074;13.764;2024-02-04T08:12:08;10.40;99.90
43949;DHT22;29429;51.074;13.764;2024-02-04T08:14:36;10.50;99.90
43949;DHT22;29429;51.074;13.764;2024-02-04T08:17:03;10.50;99.90
43949;DHT22;29429;51.074;13.764;2024-02-04T08:19:30;10.60;99.90
43949;DHT22;29429;51.074;13.764;2024-02-04T08:21:58;10.60;99.90
43949;DHT22;29429;51.074;13.764;2024-02-04T08:24:25;10.70;99.90
43949;DHT22;29429;51.074;13.764;2024-02-04T08:26:52;10.80;99.90
43949;DHT22;29429;51.074;13.764;2024-02-04T08:29:19;10.80;99.90
43949;DHT22;29429;51.074;13.764;2024-02-04T08:31:46;10.80;99.90
43949;DHT22;29429;51.074;13.764;2024-02-04T08:34:13;10.90;99.90
43949;DHT22;29429;51.074;13.764;2024-02-04T08:36:40;10.90;99.90
43949;DHT22;29429;51.074;13.764;2024-02-04T08:39:07;10.90;99.90
43949;DHT22;29429;51.074;13.764;2024-02-04T08:41:34;11.00;99.90
43949;DHT22;29429;51.074;13.764;2024-02-04T08:44:01;11.00;99.90
43949;DHT22;29429;51.074;13.764;2024-02-04T08:46:30;11.10;99.90
43949;DHT22;29429;51.074;13.764;2024-02-04T08:48:57;11.10;99.90
43949;DHT22;29429;51.074;13.764;2024-02-04T08:51:24;11.20;99.90
43949;DHT22;29429;51.074;13.764;2024-02-04T08:53:55;11.20;99.90
43949;DHT22;29429;51.074;13.764;2024-02-04T08:56:22;11.10;99.90
43949;DHT22;29429;51.074;13.764;2024-02-04T08:58:49;11.20;99.90
43949;DHT22;29429;51.074;13.764;2024-02-04T09:01:16;11.20;99.90
43949;DHT22;29429;51.074;13.764;2024-02-04T09:03:45;11.30;99.90
43949;DHT22;29429;51.074;13.764;2024-02-04T09:06:12;11.30;99.90
43949;DHT22;29429;51.074;13.764;2024-02-04T09:08:39;11.40;99.90
43949;DHT22;29429;51.074;13.764;2024-02-04T09:11:06;11.50;99.90
43949;DHT22;29429;51.074;13.764;2024-02-04T09:13:32;11.40;99.90
43949;DHT22;29429;51.074;13.764;2024-02-04T09:16:01;11.40;99.90
43949;DHT22;29429;51.074;13.764;2024-02-04T09:18:28;11.30;99.90
43949;DHT22;29429;51.074;13.764;2024-02-04T09:20:55;11.20;99.90
43949;DHT22;29429;51.074;13.764;2024-02-04T09:23:22;11.20;99.90
43949;DHT22;29429;51.074;13.764;2024-02-04T09:25:49;11.20;99.90
43949;DHT22;29429;51.074;13.764;2024-02-04T09:28:16;11.20;99.90
43949;DHT22;29429;51.074;13.764;2024-02-04T09:30:43;11.20;99.90
43949;DHT22;29429;51.074;13.764;2024-02-04T09:33:10;11.10;99.90
43949;DHT22;29429;51.074;13.764;2024-02-04T09:35:37;11.00;99.90
43949;DHT22;29429;51.074;13.764;2024-02-04T09:38:06;11.00;99.90
43949;DHT22;29429;51.074;13.764;2024-02-04T09:40:38;11.10;99.90
43949;DHT22;29429;51.074;13.764;2024-02-04T09:43:05;11.10;99.90
43949;DHT22;29429;51.074;13.764;2024-02-04T09:45:33;11.20;99.90
43949;DHT22;29429;51.074;13.764;2024-02-04T09:48:02;11.20;99.90
43949;DHT22;29429;51.074;13.764;2024-02-04T09:50:30;11.20;99.90
43949;DHT22;29429;51.074;13.764;2024-02-04T09:52:59;11.20;99.90
43949;DHT22;29429;51.074;13.764;2024-02-04T09:55:28;11.20;99.90
43949;DHT22;29429;51.074;13.764;2024-02-04T09:57:57;11.20;99.90
43949;DHT22;29429;51.074;13.764;2024-02-04T10:00:27;11.20;99.90
43949;DHT22;29429;51.074;13.764;2024-02-04T10:02:58;11.20;99.90
43949;DHT22;29429;51.074;13.764;2024-02-04T10:05:25;11.20;99.90
43949;DHT22;29429;51.074;13.764;2024-02-04T10:07:52;11.20;99.90
43949;DHT22;29429;51.074;13.764;2024-02-04T10:10:20;11.20;99.90
43949;DHT22;29429;51.074;13.764;2024-02-04T10:12:47;11.20;99.90
43949;DHT22;29429;51.074;13.764;2024-02-04T10:15:14;11.20;99.90
43949;DHT22;29429;51.074;13.764;2024-02-04T10:17:45;11.10;99.90
43949;DHT22;29429;51.074;13.764;2024-02-04T10:20:13;11.00;99.90
43949;DHT22;29429;51.074;13.764;2024-02-04T10:22:43;10.90;99.90
43949;DHT22;29429;51.074;13.764;2024-02-04T10:25:11;10.80;99.90
43949;DHT22;29429;51.074;13.764;2024-02-04T10:27:40;10.70;99.90
43949;DHT22;29429;51.074;13.764;2024-02-04T10:30:08;10.50;99.90
43949;DHT22;29429;51.074;13.764;2024-02-04T10:32:36;10.40;99.90
43949;DHT22;29429;51.074;13.764;2024-02-04T10:35:03;10.30;99.90
43949;DHT22;29429;51.074;13.764;2024-02-04T10:37:30;10.30;99.90
43949;DHT22;29429;51.074;13.764;2024-02-04T10:39:57;10.40;99.90
43949;DHT22;29429;51.074;13.764;2024-02-04T10:42:26;10.20;99.90
43949;DHT22;29429;51.074;13.764;2024-02-04T10:44:54;10.20;99.90
43949;DHT22;29429;51.074;13.764;2024-02-04T10:47:23;10.20;99.90
43949;DHT22;29429;51.074;13.764;2024-02-04T10:49:51;10.20;99.90
43949;DHT22;29429;51.074;13.764;2024-02-04T10:52:23;10.30;99.90
43949;DHT22;29429;51.074;13.764;2024-02-04T10:54:54;10.30;99.90
43949;DHT22;29429;51.074;13.764;2024-02-04T10:57:22;10.30;99.90
43949;DHT22;29429;51.074;13.764;2024-02-04T10:59:51;10.40;99.90
43949;DHT22;29429;51.074;13.764;2024-02-04T11:02:19;10.30;99.90
43949;DHT22;29429;51.074;13.764;2024-02-04T11:04:48;10.30;99.90
43949;DHT22;29429;51.074;13.764;2024-02-04T11:07:20;10.30;99.90
43949;DHT22;29429;51.074;13.764;2024-02-04T11:09:48;10.20;99.90
43949;DHT22;29429;51.074;13.764;2024-02-04T11:12:19;10.30;99.90
43949;DHT22;29429;51.074;13.764;2024-02-04T11:14:51;10.40;99.90
43949;DHT22;29429;51.074;13.764;2024-02-04T11:17:29;10.40;99.90
43949;DHT22;29429;51.074;13.764;2024-02-04T11:26:57;10.60;99.90
43949;DHT22;29429;51.074;13.764;2024-02-04T11:29:24;10.70;99.90
43949;DHT22;29429;51.074;13.764;2024-02-04T11:31:53;10.80;99.90
43949;DHT22;29429;51.074;13.764;2024-02-04T11:34:25;10.90;99.90
43949;DHT22;29429;51.074;13.764;2024-02-04T11:36:52;10.90;99.90
43949;DHT22;29429;51.074;13.764;2024-02-04T11:39:20;11.00;99.90
43949;DHT22;29429;51.074;13.764;2024-02-04T11:41:49;11.00;99.90
43949;DHT22;29429;51.074;13.764;2024-02-04T11:44:24;11.00;99.90
43949;DHT22;29429;51.074;13.764;2024-02-04T11:46:54;11.10;99.90
43949;DHT22;29429;51.074;13.764;2024-02-04T11:49:25;11.00;99.90
43949;DHT22;29429;51.074;13.764;2024-02-04T11:51:53;11.00;99.90
43949;DHT22;29429;51.074;13.764;2024-02-04T11:54:21;11.00;99.90
43949;DHT22;29429;51.074;13.764;2024-02-04T11:56:49;11.00;99.90
43949;DHT22;29429;51.074;13.764;2024-02-04T11:59:23;11.10;99.90
43949;DHT22;29429;51.074;13.764;2024-02-04T12:01:55;11.00;99.90
43949;DHT22;29429;51.074;13.764;2024-02-04T12:04:27;10.90;99.90
43949;DHT22;29429;51.074;13.764;2024-02-04T12:06:56;10.80;99.90
43949;DHT22;29429;51.074;13.764;2024-02-04T12:09:24;10.80;99.90
43949;DHT22;29429;51.074;13.764;2024-02-04T12:11:53;10.90;99.90
43949;DHT22;29429;51.074;13.764;2024-02-04T12:14:21;10.90;99.90
43949;DHT22;29429;51.074;13.764;2024-02-04T12:16:49;10.90;99.90
43949;DHT22;29429;51.074;13.764;2024-02-04T12:19:16;10.90;99.90
43949;DHT22;29429;51.074;13.764;2024-02-04T12:21:43;11.00;99.90
43949;DHT22;29429;51.074;13.764;2024-02-04T12:24:11;10.90;99.90
43949;DHT22;29429;51.074;13.764;2024-02-04T12:26:39;10.80;99.90
43949;DHT22;29429;51.074;13.764;2024-02-04T12:29:06;11.20;99.90
43949;DHT22;29429;51.074;13.764;2024-02-04T12:31:34;10.90;99.90
43949;DHT22;29429;51.074;13.764;2024-02-04T12:34:01;11.00;99.90
43949;DHT22;29429;51.074;13.764;2024-02-04T12:36:31;11.10;99.90
43949;DHT22;29429;51.074;13.764;2024-02-04T12:39:00;11.10;99.90
43949;DHT22;29429;51.074;13.764;2024-02-04T12:41:28;11.20;99.90
43949;DHT22;29429;51.074;13.764;2024-02-04T12:43:58;11.20;99.90
43949;DHT22;29429;51.074;13.764;2024-02-04T12:46:27;11.10;99.90
43949;DHT22;29429;51.074;13.764;2024-02-04T12:48:55;11.30;99.90
43949;DHT22;29429;51.074;13.764;2024-02-04T12:51:32;11.30;99.90
43949;DHT22;29429;51.074;13.764;2024-02-04T12:54:09;11.30;99.90
43949;DHT22;29429;51.074;13.764;2024-02-04T12:56:47;11.30;99.90
43949;DHT22;29429;51.074;13.764;2024-02-04T12:59:31;11.50;99.90
43949;DHT22;29429;51.074;13.764;2024-02-04T13:02:04;11.50;99.90
43949;DHT22;29429;51.074;13.764;2024-02-04T13:04:40;11.50;99.90
43949;DHT22;29429;51.074;13.764;2024-02-04T13:07:10;11.60;99.90
43949;DHT22;29429;51.074;13.764;2024-02-04T13:09:58;11.60;99.90
43949;DHT22;29429;51.074;13.764;2024-02-04T13:12:28;11.50;99.90
43949;DHT22;29429;51.074;13.764;2024-02-04T13:14:55;11.60;99.90
43949;DHT22;29429;51.074;13.764;2024-02-04T13:17:22;11.50;99.90
43949;DHT22;29429;51.074;13.764;2024-02-04T13:19:49;11.60;99.90
43949;DHT22;29429;51.074;13.764;2024-02-04T13:22:16;11.50;99.90
43949;DHT22;29429;51.074;13.764;2024-02-04T13:24:43;11.40;99.90
43949;DHT22;29429;51.074;13.764;2024-02-04T13:27:10;11.40;99.90
43949;DHT22;29429;51.074;13.764;2024-02-04T13:29:37;11.40;99.90
43949;DHT22;29429;51.074;13.764;2024-02-04T13:32:05;11.40;99.90
43949;DHT22;29429;51.074;13.764;2024-02-04T13:34:32;11.30;99.90
43949;DHT22;29429;51.074;13.764;2024-02-04T13:36:59;11.40;99.90
43949;DHT22;29429;51.074;13.764;2024-02-04T13:39:26;11.20;99.90
43949;DHT22;29429;51.074;13.764;2024-02-04T13:41:53;11.10;99.90
43949;DHT22;29429;51.074;13.764;2024-02-04T13:44:20;11.00;99.90
43949;DHT22;29429;51.074;13.764;2024-02-04T13:46:47;11.00;99.90
43949;DHT22;29429;51.074;13.764;2024-02-04T13:49:14;10.90;99.90
43949;DHT22;29429;51.074;13.764;2024-02-04T13:51:41;11.00;99.90
43949;DHT22;29429;51.074;13.764;2024-02-04T13:54:12;10.90;99.90
43949;DHT22;29429;51.074;13.764;2024-02-04T13:56:44;10.90;99.90
43949;DHT22;29429;51.074;13.764;2024-02-04T13:59:13;10.90;99.90
43949;DHT22;29429;51.074;13.764;2024-02-04T14:01:40;10.90;99.90
43949;DHT22;29429;51.074;13.764;2024-02-04T14:04:07;10.90;99.90
43949;DHT22;29429;51.074;13.764;2024-02-04T14:06:35;10.80;99.90
43949;DHT22;29429;51.074;13.764;2024-02-04T14:09:02;10.90;99.90
43949;DHT22;29429;51.074;13.764;2024-02-04T14:11:30;10.90;99.90
43949;DHT22;29429;51.074;13.764;2024-02-04T14:13:56;10.80;99.90
43949;DHT22;29429;51.074;13.764;2024-02-04T14:16:23;10.70;99.90
43949;DHT22;29429;51.074;13.764;2024-02-04T14:18:51;10.70;99.90
43949;DHT22;29429;51.074;13.764;2024-02-04T14:21:20;10.70;99.90
43949;DHT22;29429;51.074;13.764;2024-02-04T14:23:47;10.60;99.90
43949;DHT22;29429;51.074;13.764;2024-02-04T14:26:18;10.50;99.90
43949;DHT22;29429;51.074;13.764;2024-02-04T14:28:45;10.60;99.90
43949;DHT22;29429;51.074;13.764;2024-02-04T14:31:12;10.60;99.90
43949;DHT22;29429;51.074;13.764;2024-02-04T14:33:40;10.60;99.90
43949;DHT22;29429;51.074;13.764;2024-02-04T14:36:09;10.50;99.90
43949;DHT22;29429;51.074;13.764;2024-02-04T14:38:37;10.60;99.90
43949;DHT22;29429;51.074;13.764;2024-02-04T14:41:06;10.40;99.90
43949;DHT22;29429;51.074;13.764;2024-02-04T14:43:33;10.50;99.90
43949;DHT22;29429;51.074;13.764;2024-02-04T14:46:03;10.40;99.90
43949;DHT22;29429;51.074;13.764;2024-02-04T14:48:30;10.40;99.90
43949;DHT22;29429;51.074;13.764;2024-02-04T14:50:57;10.50;99.90
43949;DHT22;29429;51.074;13.764;2024-02-04T14:53:25;10.50;99.90
43949;DHT22;29429;51.074;13.764;2024-02-04T14:55:52;10.30;99.90
43949;DHT22;29429;51.074;13.764;2024-02-04T14:58:21;10.40;99.90
43949;DHT22;29429;51.074;13.764;2024-02-04T15:00:48;10.40;99.90
43949;DHT22;29429;51.074;13.764;2024-02-04T15:03:15;10.40;99.90
43949;DHT22;29429;51.074;13.764;2024-02-04T15:05:43;10.40;99.90
43949;DHT22;29429;51.074;13.764;2024-02-04T15:08:10;10.40;99.90
43949;DHT22;29429;51.074;13.764;2024-02-04T15:10:36;10.40;99.90
43949;DHT22;29429;51.074;13.764;2024-02-04T15:13:05;10.40;99.90
43949;DHT22;29429;51.074;13.764;2024-02-04T15:15:32;10.40;99.90
43949;DHT22;29429;51.074;13.764;2024-02-04T15:18:00;10.40;99.90
43949;DHT22;29429;51.074;13.764;2024-02-04T15:20:27;10.40;99.90
43949;DHT22;29429;51.074;13.764;2024-02-04T15:22:58;10.30;99.90
43949;DHT22;29429;51.074;13.764;2024-02-04T15:25:27;10.30;99.90
43949;DHT22;29429;51.074;13.764;2024-02-04T15:27:56;10.30;99.90
43949;DHT22;29429;51.074;13.764;2024-02-04T15:30:23;10.30;99.90
43949;DHT22;29429;51.074;13.764;2024-02-04T15:32:54;10.30;99.90
43949;DHT22;29429;51.074;13.764;2024-02-04T15:35:22;10.30;99.90
43949;DHT22;29429;51.074;13.764;2024-02-04T15:37:49;10.20;99.90
43949;DHT22;29429;51.074;13.764;2024-02-04T15:40:16;10.30;99.90